Time;durP1;ratioP1;P1;durP2;ratioP2;P2;SDS_P1;SDS_P2;PMS_P1;PMS_P2;Temp;Humidity;BMP_temperature;BMP_pressure;BME280_temperature;BME280_humidity;BME280_pressure;Samples;Min_cycle;Max_cycle;Signal;HPM_P1;HPM_P2
2021/11/09 00:02:05;;;;;;;12.63;4.50;;;4.30;99.90;;;;;;5014059;28;20145;-85
2021/11/09 00:04:37;;;;;;;15.48;4.28;;;4.00;99.90;;;;;;5014038;28;20026;-85
2021/11/09 00:07:24;;;;;;;10.18;4.20;;;3.60;99.90;;;;;;5014022;28;20375;-85
2021/11/09 00:09:59;;;;;;;10.57;4.13;;;3.90;99.90;;;;;;5013984;28;20034;-85
2021/11/09 00:12:41;;;;;;;13.95;4.55;;;4.10;99.90;;;;;;5013836;28;20057;-85
2021/11/09 00:15:10;;;;;;;11.05;4.38;;;4.40;99.90;;;;;;5013908;28;20064;-83
2021/11/09 00:17:37;;;;;;;13.90;4.38;;;4.30;99.90;;;;;;5013827;28;20105;-85
2021/11/09 00:20:09;;;;;;;11.13;4.82;;;4.10;99.90;;;;;;5013757;28;20075;-85
2021/11/09 00:22:35;;;;;;;12.98;4.50;;;4.10;99.90;;;;;;5013616;28;20585;-85
2021/11/09 00:25:00;;;;;;;10.40;4.30;;;3.60;99.90;;;;;;5014932;28;20166;-84
2021/11/09 00:27:26;;;;;;;11.35;4.72;;;3.70;99.90;;;;;;5014808;28;20022;-84
2021/11/09 00:29:52;;;;;;;11.10;4.10;;;3.50;99.90;;;;;;5013544;28;20022;-84
2021/11/09 00:32:18;;;;;;;10.77;3.90;;;3.60;99.90;;;;;;5014721;28;20069;-85
2021/11/09 00:34:45;;;;;;;14.63;4.68;;;3.60;99.90;;;;;;5013522;28;20022;-84
2021/11/09 00:37:11;;;;;;;8.95;3.78;;;4.00;99.90;;;;;;5013484;28;20026;-85
2021/11/09 00:39:37;;;;;;;11.48;4.47;;;3.90;99.90;;;;;;5013431;28;20025;-85
2021/11/09 00:42:04;;;;;;;12.40;4.78;;;3.90;99.90;;;;;;5014660;28;20036;-85
2021/11/09 00:44:30;;;;;;;13.77;4.75;;;3.60;99.90;;;;;;5013320;28;20030;-85
2021/11/09 00:46:56;;;;;;;12.48;4.20;;;3.80;99.90;;;;;;5013575;28;20072;-85
2021/11/09 00:49:23;;;;;;;11.20;4.45;;;3.70;99.90;;;;;;5013321;28;20026;-84
2021/11/09 00:51:50;;;;;;;9.85;3.88;;;3.60;99.90;;;;;;5013118;28;20057;-85
2021/11/09 00:54:17;;;;;;;12.73;4.43;;;3.60;99.90;;;;;;5013975;28;20553;-85
2021/11/09 00:56:44;;;;;;;9.23;4.20;;;3.70;99.90;;;;;;5013040;28;20017;-86
2021/11/09 00:59:10;;;;;;;10.70;4.15;;;4.00;99.90;;;;;;5012938;28;20030;-85
2021/11/09 01:01:36;;;;;;;13.23;4.40;;;4.10;99.90;;;;;;5012912;28;20022;-85
2021/11/09 01:04:03;;;;;;;10.88;4.10;;;4.40;99.90;;;;;;5012949;28;20025;-85
2021/11/09 01:06:29;;;;;;;9.45;4.68;;;4.20;99.90;;;;;;5012937;28;20116;-85
2021/11/09 01:08:54;;;;;;;8.95;3.97;;;3.90;99.90;;;;;;5012142;28;20026;-85
2021/11/09 01:11:20;;;;;;;9.25;3.42;;;3.90;99.90;;;;;;5012722;28;20535;-85
2021/11/09 01:13:47;;;;;;;12.85;4.63;;;4.00;99.90;;;;;;5013574;28;20121;-85
2021/11/09 01:16:14;;;;;;;11.05;4.43;;;4.00;99.90;;;;;;5012747;28;20037;-85
2021/11/09 01:18:49;;;;;;;9.30;3.55;;;3.80;99.90;;;;;;5012686;28;20077;-84
2021/11/09 01:21:17;;;;;;;10.32;3.78;;;3.80;99.90;;;;;;5022746;28;20413;-85
2021/11/09 01:23:48;;;;;;;9.40;4.22;;;3.50;99.90;;;;;;5015895;28;20021;-84
2021/11/09 01:26:14;;;;;;;10.75;4.18;;;3.40;99.90;;;;;;5033543;28;20057;-85
2021/11/09 01:28:41;;;;;;;10.43;4.00;;;3.00;99.90;;;;;;5015755;28;20036;-85
2021/11/09 01:31:08;;;;;;;9.98;4.10;;;3.20;99.90;;;;;;5015627;28;20036;-85
2021/11/09 01:33:35;;;;;;;10.25;3.70;;;3.60;99.90;;;;;;5015653;28;20025;-84
2021/11/09 01:36:02;;;;;;;10.45;4.55;;;3.80;99.90;;;;;;5015587;28;20068;-84
2021/11/09 01:38:28;;;;;;;8.40;4.07;;;4.00;99.90;;;;;;5015632;28;20112;-85
2021/11/09 01:40:54;;;;;;;9.98;4.18;;;4.10;99.90;;;;;;5016175;28;20145;-85
2021/11/09 01:43:23;;;;;;;12.98;3.83;;;3.90;99.90;;;;;;5033330;28;20042;-84
2021/11/09 01:45:49;;;;;;;13.25;3.92;;;3.20;99.90;;;;;;5015850;28;20029;-85
2021/11/09 01:48:16;;;;;;;13.75;4.30;;;2.70;99.90;;;;;;5015530;28;20036;-85
2021/11/09 01:50:47;;;;;;;12.20;3.92;;;2.80;99.90;;;;;;5015356;28;20075;-86
2021/11/09 01:53:13;;;;;;;9.43;4.25;;;2.70;99.90;;;;;;5015405;28;20485;-85
2021/11/09 01:55:39;;;;;;;8.52;3.75;;;2.60;99.90;;;;;;5033611;28;20486;-85
2021/11/09 01:58:06;;;;;;;13.32;4.55;;;3.10;99.90;;;;;;5015383;28;20017;-85
2021/11/09 02:00:38;;;;;;;9.05;3.95;;;3.60;99.90;;;;;;5033051;28;20018;-85
2021/11/09 02:03:06;;;;;;;11.80;4.00;;;4.00;99.90;;;;;;5015392;28;20032;-85
2021/11/09 02:05:32;;;;;;;10.10;4.30;;;3.70;99.90;;;;;;5015334;28;20047;-85
2021/11/09 02:08:01;;;;;;;11.85;4.30;;;3.50;99.90;;;;;;5015272;28;20052;-85
2021/11/09 02:10:30;;;;;;;11.27;3.80;;;3.60;99.90;;;;;;5015142;28;20066;-85
2021/11/09 02:12:57;;;;;;;10.25;3.85;;;3.30;99.90;;;;;;5015282;28;20370;-85
2021/11/09 02:15:23;;;;;;;11.75;4.35;;;3.70;99.90;;;;;;5015140;28;20021;-86
2021/11/09 02:17:50;;;;;;;10.60;4.13;;;3.40;99.90;;;;;;5015128;28;20470;-85
2021/11/09 02:20:19;;;;;;;13.25;4.05;;;3.20;99.90;;;;;;5016971;28;20028;-86
2021/11/09 02:22:45;;;;;;;12.27;4.15;;;3.30;99.90;;;;;;5019159;28;20032;-86
2021/11/09 02:25:14;;;;;;;9.45;3.95;;;3.50;99.90;;;;;;5019181;28;20030;-85
2021/11/09 02:27:40;;;;;;;10.02;4.22;;;3.50;99.90;;;;;;5019187;28;20029;-86
2021/11/09 02:30:10;;;;;;;11.13;4.70;;;3.10;99.90;;;;;;5036881;28;20384;-85
2021/11/09 02:32:36;;;;;;;9.23;3.80;;;3.10;99.90;;;;;;5019751;28;20025;-85
2021/11/09 02:35:03;;;;;;;15.80;3.85;;;3.40;99.90;;;;;;5019000;28;20157;-85
2021/11/09 02:37:29;;;;;;;7.13;3.83;;;3.70;99.90;;;;;;5018975;28;20045;-86
2021/11/09 02:39:55;;;;;;;12.80;4.65;;;3.30;99.90;;;;;;5018917;28;20477;-86
2021/11/09 02:42:21;;;;;;;10.13;4.20;;;3.30;99.90;;;;;;5019167;28;20068;-86
2021/11/09 02:44:55;;;;;;;9.00;4.07;;;3.40;99.90;;;;;;5018940;28;20037;-86
2021/11/09 02:47:25;;;;;;;13.48;4.50;;;3.20;99.90;;;;;;5018853;28;20033;-86
2021/11/09 02:52:19;;;;;;;12.10;4.05;;;3.10;99.90;;;;;;5036374;28;20022;-86
2021/11/09 02:54:48;;;;;;;10.82;4.15;;;3.30;99.90;;;;;;5018669;28;20489;-86
2021/11/09 03:00:16;;;;;;;12.73;4.50;;;3.00;99.90;;;;;;5036984;28;20028;-86
2021/11/09 03:02:49;;;;;;;;;;;3.50;99.90;;;;;;5018939;28;20076;-86
2021/11/09 03:05:20;;;;;;;9.80;3.45;;;4.00;99.90;;;;;;5018496;28;19905;-86
2021/11/09 03:07:56;;;;;;;12.23;4.63;;;3.90;99.90;;;;;;5018463;28;20489;-86
2021/11/09 03:10:29;;;;;;;9.75;4.32;;;3.60;99.90;;;;;;5018308;28;20025;-86
2021/11/09 03:12:55;;;;;;;11.40;3.90;;;3.40;99.90;;;;;;5018309;28;20029;-86
2021/11/09 03:15:26;;;;;;;7.63;3.65;;;3.60;99.90;;;;;;5018284;28;20056;-85
2021/11/09 03:18:00;;;;;;;10.27;3.75;;;3.50;99.90;;;;;;5035973;28;20017;-86
2021/11/09 03:47:22;;;;;;;12.00;3.70;;;3.70;99.90;;;;;;5036196;28;20038;-86
2021/11/09 03:49:50;;;;;;;13.30;4.18;;;3.80;99.90;;;;;;5018526;28;20465;-86
2021/11/09 03:52:21;;;;;;;11.18;4.78;;;4.00;99.90;;;;;;5017519;28;20029;-85
2021/11/09 03:54:51;;;;;;;8.63;3.55;;;4.40;99.90;;;;;;5018409;28;20417;-85
2021/11/09 04:05:06;;;;;;;10.98;4.55;;;3.90;99.90;;;;;;5035376;28;20074;-86
2021/11/09 04:07:38;;;;;;;14.20;5.03;;;3.80;99.90;;;;;;5035085;28;20028;-85
2021/11/09 04:10:17;;;;;;;11.43;4.45;;;3.90;99.90;;;;;;5017263;28;20028;-85
2021/11/09 04:15:47;;;;;;;8.90;4.40;;;3.50;99.90;;;;;;5034978;28;20029;-86
2021/11/09 04:18:37;;;;;;;10.07;4.15;;;3.60;99.90;;;;;;5017168;28;20022;-86
2021/11/09 04:29:18;;;;;;;11.68;4.50;;;3.60;99.90;;;;;;5034634;28;20033;-85
2021/11/09 05:09:13;;;;;;;10.27;3.67;;;3.50;99.90;;;;;;5034440;28;20393;-85
2021/11/09 05:11:39;;;;;;;12.93;4.27;;;3.50;99.90;;;;;;5016049;28;20033;-85
2021/11/09 05:14:10;;;;;;;9.65;4.80;;;3.60;99.90;;;;;;5015946;28;20351;-85
2021/11/09 05:16:36;;;;;;;8.15;3.97;;;3.70;99.90;;;;;;5015866;28;20021;-85
2021/11/09 05:19:03;;;;;;;7.28;3.83;;;3.50;99.90;;;;;;5016264;28;20079;-85
2021/11/09 05:21:29;;;;;;;10.35;4.30;;;3.40;99.90;;;;;;5015648;28;20155;-85
2021/11/09 05:23:55;;;;;;;7.20;3.70;;;3.40;99.90;;;;;;5015829;28;20141;-85
2021/11/09 05:26:21;;;;;;;10.35;4.28;;;3.50;99.90;;;;;;5015859;28;20123;-85
2021/11/09 05:28:46;;;;;;;9.93;4.25;;;3.60;99.90;;;;;;5015712;28;20045;-85
2021/11/09 05:31:15;;;;;;;14.30;4.72;;;3.60;99.90;;;;;;5015468;28;20025;-85
2021/11/09 05:33:41;;;;;;;11.40;4.45;;;3.10;99.90;;;;;;5015698;28;20416;-85
2021/11/09 05:36:09;;;;;;;9.80;4.85;;;2.80;99.90;;;;;;5015596;28;20029;-85
2021/11/09 05:38:56;;;;;;;13.23;5.03;;;2.80;99.90;;;;;;5015611;28;20501;-85
2021/11/09 05:41:23;;;;;;;15.05;4.60;;;3.20;99.90;;;;;;5015558;28;20025;-86
2021/11/09 05:43:49;;;;;;;9.93;4.63;;;3.20;99.90;;;;;;5033285;28;20127;-85
2021/11/09 05:46:15;;;;;;;13.00;4.80;;;3.30;99.90;;;;;;5033253;28;20097;-85
2021/11/09 05:48:41;;;;;;;14.05;5.10;;;3.30;99.90;;;;;;5015452;28;20124;-85
2021/11/09 05:51:08;;;;;;;13.45;4.38;;;3.30;99.90;;;;;;5033086;28;20033;-85
2021/11/09 05:53:35;;;;;;;8.70;4.57;;;3.30;99.90;;;;;;5015412;28;20504;-85
2021/11/09 05:56:02;;;;;;;8.13;4.35;;;3.60;99.90;;;;;;5014880;28;20033;-85
2021/11/09 05:58:28;;;;;;;7.15;3.53;;;3.50;99.90;;;;;;5015302;28;20119;-85
2021/11/09 06:00:55;;;;;;;10.73;5.00;;;3.60;99.90;;;;;;5015347;28;20489;-84
2021/11/09 06:03:23;;;;;;;10.73;4.65;;;3.20;99.90;;;;;;5015203;28;20528;-85
2021/11/09 06:05:55;;;;;;;9.43;4.90;;;3.40;99.90;;;;;;5015225;28;20022;-84
2021/11/09 06:08:22;;;;;;;12.02;6.55;;;3.60;99.90;;;;;;5015149;28;20028;-84
2021/11/09 06:10:49;;;;;;;12.18;5.38;;;3.40;99.90;;;;;;5015158;28;20079;-84
2021/11/09 06:13:15;;;;;;;15.02;7.47;;;3.10;99.90;;;;;;5015494;28;20393;-85
2021/11/09 06:15:41;;;;;;;12.32;5.88;;;3.30;99.90;;;;;;5015481;28;20017;-84
2021/11/09 06:18:08;;;;;;;14.40;6.53;;;3.00;99.90;;;;;;5015117;28;20483;-84
2021/11/09 06:20:34;;;;;;;14.77;7.05;;;3.30;99.90;;;;;;5014919;28;20052;-84
2021/11/09 06:23:00;;;;;;;15.60;7.55;;;3.00;99.90;;;;;;5032833;28;20063;-85
2021/11/09 06:25:26;;;;;;;14.68;6.15;;;2.90;99.90;;;;;;5014985;28;20061;-84
2021/11/09 06:27:53;;;;;;;12.95;7.18;;;3.00;99.90;;;;;;5032749;28;20045;-84
2021/11/09 06:30:21;;;;;;;12.07;5.95;;;3.00;99.90;;;;;;5014983;28;20029;-84
2021/11/09 06:32:47;;;;;;;15.00;6.85;;;2.90;99.90;;;;;;5032955;28;20435;-84
2021/11/09 06:35:13;;;;;;;14.15;6.55;;;3.20;99.90;;;;;;5015017;28;20393;-84
2021/11/09 06:37:39;;;;;;;12.32;5.72;;;3.10;99.90;;;;;;5014959;28;20022;-84
2021/11/09 06:40:06;;;;;;;12.80;6.03;;;3.20;99.90;;;;;;5014938;28;20482;-84
2021/11/09 06:42:33;;;;;;;15.40;6.28;;;3.00;99.90;;;;;;5014934;28;20060;-84
2021/11/09 06:44:59;;;;;;;13.45;6.18;;;2.90;99.90;;;;;;5014877;28;20025;-84
2021/11/09 06:47:24;;;;;;;15.20;6.20;;;3.00;99.90;;;;;;5014894;28;20032;-84
2021/11/09 06:49:50;;;;;;;12.35;6.72;;;2.90;99.90;;;;;;5014876;28;20508;-84
2021/11/09 06:52:17;;;;;;;15.85;7.28;;;2.90;99.90;;;;;;5014715;28;20545;-84
2021/11/09 06:54:44;;;;;;;18.92;6.97;;;2.80;99.90;;;;;;5014752;28;20036;-84
2021/11/09 06:57:11;;;;;;;14.27;5.97;;;2.90;99.90;;;;;;5014679;28;20485;-84
2021/11/09 06:59:38;;;;;;;11.10;5.28;;;3.30;99.90;;;;;;5032454;28;20473;-84
2021/11/09 07:02:05;;;;;;;12.20;5.90;;;3.60;99.90;;;;;;5014559;28;20029;-84
2021/11/09 07:04:31;;;;;;;10.75;5.60;;;3.80;99.90;;;;;;5014691;28;20030;-84
2021/11/09 07:06:57;;;;;;;11.60;6.20;;;3.70;99.90;;;;;;5015933;28;20037;-84
2021/11/09 07:09:23;;;;;;;14.27;5.40;;;3.80;99.90;;;;;;5036433;28;20378;-85
2021/11/09 07:11:49;;;;;;;10.55;5.32;;;4.10;99.90;;;;;;5018190;28;20025;-85
2021/11/09 07:14:16;;;;;;;8.82;5.13;;;4.30;99.90;;;;;;5018195;28;20026;-84
2021/11/09 07:16:44;;;;;;;9.02;4.97;;;4.10;99.90;;;;;;5018286;28;20021;-85
2021/11/09 07:19:11;;;;;;;13.10;5.78;;;4.00;99.90;;;;;;5018028;28;20022;-84
2021/11/09 07:21:37;;;;;;;14.27;5.38;;;4.20;99.90;;;;;;5015051;28;20571;-84
2021/11/09 07:24:03;;;;;;;12.63;5.38;;;3.90;99.90;;;;;;5014794;28;20108;-85
2021/11/09 07:26:29;;;;;;;15.20;5.80;;;4.00;99.90;;;;;;5014678;28;20052;-85
2021/11/09 07:28:57;;;;;;;12.77;6.05;;;4.00;99.90;;;;;;5015965;28;20105;-85
2021/11/09 07:31:25;;;;;;;12.77;6.22;;;3.90;99.90;;;;;;5014618;28;20516;-84
2021/11/09 07:33:51;;;;;;;18.75;6.97;;;4.30;99.90;;;;;;5014560;28;20485;-84
2021/11/09 07:36:18;;;;;;;13.70;5.65;;;4.20;99.90;;;;;;5014511;28;20383;-85
2021/11/09 07:38:44;;;;;;;13.18;5.45;;;4.20;99.90;;;;;;5014436;28;20113;-84
2021/11/09 07:41:10;;;;;;;10.05;5.80;;;4.40;99.90;;;;;;5014456;28;20056;-84
2021/11/09 07:43:37;;;;;;;12.35;5.70;;;4.30;99.90;;;;;;5014353;28;20036;-84
2021/11/09 07:46:03;;;;;;;13.98;5.10;;;4.40;99.90;;;;;;5014341;28;20025;-84
2021/11/09 07:48:30;;;;;;;10.25;5.15;;;4.40;99.90;;;;;;5014294;28;20390;-83
2021/11/09 07:50:56;;;;;;;16.15;5.20;;;4.60;99.90;;;;;;5014046;28;20095;-83
2021/11/09 07:53:29;;;;;;;15.20;6.45;;;4.90;99.90;;;;;;5014189;28;20022;-80
2021/11/09 08:01:35;;;;;;;9.60;5.40;;;5.30;99.90;;;;;;5015962;28;20029;-80
2021/11/09 08:06:55;;;;;;;;;;;5.50;99.90;;;;;;5015954;28;20523;-80
2021/11/09 08:11:54;;;;;;;14.65;6.15;;;6.00;99.90;;;;;;5015429;28;20052;-80
2021/11/09 08:14:19;;;;;;;14.10;5.45;;;6.10;99.90;;;;;;5015104;28;20029;-79
2021/11/09 08:16:47;;;;;;;12.95;4.82;;;6.10;99.90;;;;;;5015022;28;20029;-80
2021/11/09 08:19:14;;;;;;;10.15;5.10;;;6.10;99.90;;;;;;5014750;28;20022;-80
2021/11/09 08:21:39;;;;;;;9.75;5.03;;;6.00;99.90;;;;;;5013424;28;20045;-79
2021/11/09 08:24:08;;;;;;;13.48;5.18;;;6.30;99.90;;;;;;5013621;28;20076;-80
2021/11/09 08:26:34;;;;;;;8.77;4.72;;;6.10;99.90;;;;;;5013551;28;20113;-80
2021/11/09 08:29:03;;;;;;;12.60;5.05;;;6.00;99.90;;;;;;5013498;28;20061;-79
2021/11/09 08:31:31;;;;;;;12.52;5.50;;;6.00;99.90;;;;;;5013422;28;20397;-79
2021/11/09 08:33:57;;;;;;;18.35;5.85;;;6.20;99.90;;;;;;5013414;28;20018;-79
2021/11/09 08:36:25;;;;;;;16.55;5.95;;;6.40;99.90;;;;;;5014727;28;20148;-79
2021/11/09 08:38:51;;;;;;;15.85;6.50;;;6.30;99.90;;;;;;5013347;28;20401;-79
2021/11/09 08:41:19;;;;;;;15.70;6.57;;;6.60;99.90;;;;;;5014579;28;20053;-80
2021/11/09 08:46:37;;;;;;;13.13;5.60;;;6.60;99.90;;;;;;5015091;28;20057;-79
2021/11/09 08:49:04;;;;;;;15.55;5.40;;;6.80;99.90;;;;;;5013167;28;20038;-79
2021/11/09 08:51:31;;;;;;;15.00;5.60;;;7.00;99.90;;;;;;5013057;28;20033;-80
2021/11/09 08:54:12;;;;;;;11.32;5.97;;;7.30;99.90;;;;;;5013032;28;20548;-80
2021/11/09 09:04:36;;;;;;;17.20;6.60;;;7.70;99.90;;;;;;5014732;28;20099;-79
2021/11/09 09:07:03;;;;;;;9.32;4.95;;;7.90;99.90;;;;;;5012736;28;20030;-80
2021/11/09 09:09:29;;;;;;;11.85;5.70;;;8.20;99.90;;;;;;5014088;28;20037;-80
2021/11/09 09:11:55;;;;;;;16.58;5.40;;;8.40;99.90;;;;;;5013430;28;20378;-79
2021/11/09 09:14:22;;;;;;;12.82;5.82;;;8.70;99.90;;;;;;5012683;28;20474;-79
2021/11/09 09:16:48;;;;;;;11.65;5.22;;;8.70;99.90;;;;;;5012605;28;20116;-80
2021/11/09 09:19:16;;;;;;;12.55;5.10;;;8.70;99.90;;;;;;5012528;28;20531;-80
2021/11/09 09:22:05;;;;;;;11.68;4.60;;;9.20;99.90;;;;;;5012310;28;20053;-80
2021/11/09 09:54:08;;;;;;;14.65;4.57;;;10.30;99.90;;;;;;5013966;28;20140;-82
2021/11/09 09:56:46;;;;;;;22.50;5.82;;;10.50;99.90;;;;;;5012198;28;20417;-84
2021/11/09 09:59:12;;;;;;;15.73;5.35;;;10.50;99.90;;;;;;5012084;28;20026;-85
2021/11/09 10:01:42;;;;;;;11.23;4.13;;;10.70;99.90;;;;;;5012007;28;20037;-82
2021/11/09 10:04:28;;;;;;;11.20;3.50;;;10.80;99.90;;;;;;5012499;28;20145;-85
2021/11/09 10:06:54;;;;;;;15.40;3.92;;;10.80;99.90;;;;;;5013725;28;20030;-83
2021/11/09 10:09:34;;;;;;;21.15;3.83;;;10.90;99.90;;;;;;5011998;28;20053;-83
2021/11/09 10:12:35;;;;;;;11.63;3.67;;;11.00;99.90;;;;;;5012038;28;20026;-84
2021/11/09 10:15:07;;;;;;;15.15;3.78;;;11.30;99.90;;;;;;5012079;28;20026;-83
2021/11/09 10:17:34;;;;;;;12.65;3.72;;;11.40;99.90;;;;;;5011978;28;20492;-84
2021/11/09 10:20:16;;;;;;;10.25;3.28;;;11.20;99.90;;;;;;5011995;28;20029;-82
2021/11/09 10:22:49;;;;;;;15.98;4.13;;;10.90;99.90;;;;;;5011989;28;20049;-84
2021/11/09 10:25:17;;;;;;;15.68;4.30;;;11.40;99.90;;;;;;5011954;28;20037;-84
2021/11/09 10:27:46;;;;;;;10.60;3.38;;;11.70;99.90;;;;;;5011817;28;20033;-84
2021/11/09 10:30:16;;;;;;;10.82;3.38;;;11.90;99.90;;;;;;5011878;28;20038;-84
2021/11/09 10:32:44;;;;;;;13.95;3.78;;;12.00;99.90;;;;;;5011784;28;20230;-84
2021/11/09 10:35:12;;;;;;;14.80;3.60;;;12.00;99.90;;;;;;5011860;28;20394;-84
2021/11/09 10:37:44;;;;;;;12.07;3.20;;;12.00;99.90;;;;;;5013010;28;20528;-84
2021/11/09 10:40:29;;;;;;;14.60;3.72;;;12.20;99.90;;;;;;5012013;28;20029;-83
2021/11/09 10:42:59;;;;;;;12.68;3.40;;;12.40;99.90;;;;;;5015857;28;20033;-85
2021/11/09 10:45:28;;;;;;;12.73;3.45;;;12.50;99.90;;;;;;5015620;28;20092;-85
2021/11/09 10:47:57;;;;;;;10.00;2.67;;;12.20;99.90;;;;;;5015592;28;20072;-83
2021/11/09 10:50:26;;;;;;;9.32;3.20;;;12.50;99.90;;;;;;5015491;28;20454;-85
2021/11/09 10:53:02;;;;;;;10.98;3.70;;;12.60;99.90;;;;;;5015367;28;20022;-85
2021/11/09 10:55:38;;;;;;;10.98;3.13;;;12.90;99.90;;;;;;5016278;28;20069;-84
2021/11/09 11:06:18;;;;;;;15.50;3.95;;;13.30;99.90;;;;;;5017120;28;20155;-84
2021/11/09 11:08:47;;;;;;;8.73;3.33;;;13.40;99.90;;;;;;5016833;28;20053;-86
2021/11/09 11:11:21;;;;;;;9.60;3.40;;;13.50;99.90;;;;;;5015129;28;20180;-84
2021/11/09 11:13:52;;;;;;;13.68;4.05;;;13.50;99.90;;;;;;5015480;28;20113;-84
2021/11/09 11:16:20;;;;;;;16.85;5.80;;;13.70;99.90;;;;;;5015080;28;20484;-85
2021/11/09 11:18:51;;;;;;;12.27;3.70;;;13.60;99.90;;;;;;5017093;28;20022;-85
2021/11/09 11:21:19;;;;;;;10.35;3.20;;;13.80;99.90;;;;;;5023406;28;20046;-83
2021/11/09 11:23:45;;;;;;;12.95;3.67;;;14.00;99.90;;;;;;5021727;28;20029;-85
2021/11/09 11:26:12;;;;;;;10.40;2.88;;;14.00;99.90;;;;;;5016243;28;20490;-83
2021/11/09 11:28:42;;;;;;;16.20;4.00;;;14.00;99.90;;;;;;5016672;28;20033;-84
2021/11/09 11:31:09;;;;;;;11.40;3.28;;;13.90;99.90;;;;;;5015185;28;20025;-84
2021/11/09 11:33:35;;;;;;;16.25;5.00;;;13.60;99.90;;;;;;5016314;28;20026;-86
2021/11/09 11:36:01;;;;;;;10.65;3.15;;;14.20;99.90;;;;;;5014704;28;20022;-84
2021/11/09 11:38:27;;;;;;;11.57;3.67;;;14.40;99.90;;;;;;5015870;28;20037;-83
2021/11/09 11:41:00;;;;;;;10.77;3.30;;;14.30;99.90;;;;;;5014666;28;20142;-86
2021/11/09 11:43:47;;;;;;;10.02;3.50;;;14.90;99.90;;;;;;5014547;28;20076;-86
2021/11/09 11:46:37;;;;;;;11.35;4.30;;;15.20;99.90;;;;;;5014633;28;20038;-85
2021/11/09 11:49:13;;;;;;;12.45;2.95;;;14.60;99.90;;;;;;4965485;28;20129;-86
2021/11/09 11:51:44;;;;;;;9.15;3.45;;;15.10;99.90;;;;;;5014384;28;20026;-86
2021/11/09 11:54:18;;;;;;;9.00;2.60;;;15.70;99.90;;;;;;5013837;28;20065;-86
2021/11/09 11:56:50;;;;;;;12.63;2.67;;;15.30;99.90;;;;;;5014553;28;20547;-85
2021/11/09 11:59:22;;;;;;;9.75;2.85;;;15.80;99.90;;;;;;5014532;28;20477;-85
2021/11/09 12:02:00;;;;;;;9.68;2.72;;;16.30;98.20;;;;;;5014286;28;20022;-86
2021/11/09 12:04:44;;;;;;;10.23;2.85;;;16.60;97.60;;;;;;5014203;28;20049;-85
2021/11/09 12:07:19;;;;;;;14.27;4.43;;;16.90;97.20;;;;;;5014107;28;20022;-86
2021/11/09 12:09:47;;;;;;;10.40;2.85;;;16.70;96.80;;;;;;5014066;28;20032;-86
2021/11/09 12:12:19;;;;;;;11.38;3.40;;;16.50;96.90;;;;;;5013813;28;20121;-86
2021/11/09 12:14:51;;;;;;;7.78;3.38;;;17.00;96.20;;;;;;5015127;28;20026;-81
2021/11/09 12:17:40;;;;;;;10.43;2.55;;;17.40;95.20;;;;;;5015407;28;20014;-81
2021/11/09 12:20:10;;;;;;;10.43;3.72;;;17.70;94.30;;;;;;5015053;28;20013;-80
2021/11/09 12:22:42;;;;;;;10.07;2.78;;;17.20;94.10;;;;;;5034583;28;20051;-81
2021/11/09 12:25:14;;;;;;;8.55;2.83;;;16.70;94.30;;;;;;5016915;28;20033;-81
2021/11/09 12:27:46;;;;;;;7.18;2.30;;;17.30;94.40;;;;;;5016863;28;20106;-81
2021/11/09 12:30:13;;;;;;;13.45;3.60;;;17.50;94.10;;;;;;5016744;28;20028;-81
2021/11/09 12:32:42;;;;;;;9.80;2.88;;;17.80;93.00;;;;;;5016687;28;20033;-81
2021/11/09 12:35:25;;;;;;;12.68;2.90;;;18.10;92.90;;;;;;5016748;28;20524;-81
2021/11/09 12:38:02;;;;;;;11.43;2.97;;;17.90;91.60;;;;;;5034524;28;20091;-82
2021/11/09 12:40:31;;;;;;;9.20;2.53;;;18.10;91.30;;;;;;5016635;28;20104;-81
2021/11/09 12:43:25;;;;;;;9.60;2.95;;;18.20;90.90;;;;;;5016585;28;20029;-81
2021/11/09 12:46:08;;;;;;;10.18;2.63;;;18.20;90.70;;;;;;5016837;28;20029;-81
2021/11/09 12:48:36;;;;;;;6.63;2.40;;;17.80;90.90;;;;;;5034509;28;20017;-80
2021/11/09 12:51:07;;;;;;;8.73;2.92;;;18.20;90.10;;;;;;5016389;28;20482;-81
2021/11/09 12:53:41;;;;;;;8.50;2.80;;;18.40;90.30;;;;;;5016351;28;20027;-81
2021/11/09 12:56:12;;;;;;;7.75;2.60;;;18.60;89.40;;;;;;5034129;28;20018;-81
2021/11/09 12:58:47;;;;;;;10.57;2.65;;;18.60;89.10;;;;;;5016241;28;20029;-81
2021/11/09 13:04:00;;;;;;;8.32;2.50;;;19.00;87.80;;;;;;5033764;28;20025;-81
2021/11/09 13:06:43;;;;;;;7.13;2.67;;;19.50;85.60;;;;;;5034049;28;20029;-81
2021/11/09 13:09:27;;;;;;;10.07;2.70;;;18.90;86.00;;;;;;5016926;28;20373;-82
2021/11/09 13:12:03;;;;;;;14.75;2.70;;;18.40;88.00;;;;;;5015932;28;20032;-81
2021/11/09 13:14:42;;;;;;;9.60;2.55;;;19.00;85.70;;;;;;5016042;28;20064;-81
2021/11/09 13:17:22;;;;;;;9.60;2.85;;;18.80;85.70;;;;;;5016014;28;20098;-82
2021/11/09 13:20:01;;;;;;;7.28;2.58;;;18.50;85.30;;;;;;5016165;28;20083;-82
2021/11/09 13:22:30;;;;;;;7.18;1.83;;;18.90;84.40;;;;;;5015704;28;20042;-81
2021/11/09 13:25:08;;;;;;;9.07;1.83;;;19.40;83.30;;;;;;5015788;28;20022;-81
2021/11/09 13:27:45;;;;;;;9.20;2.30;;;19.00;83.70;;;;;;5015743;28;20433;-81
2021/11/09 13:30:18;;;;;;;7.13;2.20;;;19.00;82.70;;;;;;5015763;28;20537;-81
2021/11/09 13:32:47;;;;;;;5.72;2.03;;;18.90;83.20;;;;;;5015613;28;20113;-81
2021/11/09 13:35:36;;;;;;;8.70;2.30;;;18.60;84.40;;;;;;5016213;28;20036;-81
2021/11/09 13:38:14;;;;;;;9.13;2.67;;;18.10;85.10;;;;;;5015805;28;20428;-82
2021/11/09 13:40:51;;;;;;;12.48;2.47;;;18.10;85.20;;;;;;5033296;28;20021;-82
2021/11/09 13:43:28;;;;;;;8.32;2.15;;;18.40;83.60;;;;;;5015600;28;20030;-82
2021/11/09 13:46:11;;;;;;;11.68;1.92;;;18.80;82.80;;;;;;5015665;28;20412;-82
2021/11/09 13:48:40;;;;;;;7.88;1.98;;;18.60;83.10;;;;;;5033472;28;20025;-82
2021/11/09 13:51:10;;;;;;;11.55;2.42;;;18.80;82.40;;;;;;5015396;28;20450;-82
2021/11/09 13:53:42;;;;;;;7.32;2.10;;;18.60;81.10;;;;;;5015409;28;20075;-81
2021/11/09 13:56:17;;;;;;;7.80;1.60;;;17.90;83.30;;;;;;5015397;28;20017;-81
2021/11/09 13:59:04;;;;;;;6.25;1.90;;;17.80;84.00;;;;;;5015387;28;20022;-82
2021/11/09 14:01:59;;;;;;;5.72;2.00;;;17.50;83.70;;;;;;5015312;28;20568;-81
2021/11/09 14:15:15;;;;;;;14.60;2.42;;;13.50;92.00;;;;;;5033593;28;20026;-81
2021/11/09 14:17:41;;;;;;;9.55;2.58;;;12.90;93.00;;;;;;5039581;28;20017;-82
2021/11/09 14:20:13;;;;;;;11.02;2.20;;;12.40;94.60;;;;;;5021678;28;20029;-81
2021/11/09 14:22:40;;;;;;;7.25;2.40;;;12.00;95.30;;;;;;5021823;28;20040;-81
2021/11/09 14:25:09;;;;;;;6.53;2.38;;;11.80;95.70;;;;;;5039420;28;20392;-82
2021/11/09 14:27:46;;;;;;;10.40;2.78;;;11.60;95.80;;;;;;5039396;28;20022;-82
2021/11/09 14:30:28;;;;;;;7.60;2.47;;;11.60;96.50;;;;;;5022471;28;20380;-82
2021/11/09 14:33:21;;;;;;;6.90;2.00;;;11.80;96.10;;;;;;5021495;28;20033;-82
2021/11/09 14:35:54;;;;;;;5.60;2.25;;;12.70;95.50;;;;;;5021680;28;20028;-82
2021/11/09 14:38:22;;;;;;;11.73;2.92;;;13.60;94.40;;;;;;5021540;28;20052;-82
2021/11/09 14:40:57;;;;;;;11.32;2.90;;;14.10;93.30;;;;;;5021434;28;20478;-82
2021/11/09 14:43:40;;;;;;;7.75;2.47;;;14.60;92.50;;;;;;5021418;28;20041;-82
2021/11/09 14:46:25;;;;;;;8.60;2.97;;;15.00;91.60;;;;;;5021405;28;20052;-82
2021/11/09 14:48:57;;;;;;;8.98;2.63;;;15.10;91.50;;;;;;5021437;28;20131;-82
2021/11/09 14:56:24;;;;;;;5.32;2.33;;;15.60;89.80;;;;;;5039609;28;20097;-81
2021/11/09 14:58:50;;;;;;;8.43;2.50;;;15.70;90.20;;;;;;5039317;28;20428;-82
2021/11/09 15:01:26;;;;;;;8.60;2.30;;;15.40;89.80;;;;;;5021491;28;20112;-82
2021/11/09 15:04:15;;;;;;;8.70;2.05;;;14.90;90.00;;;;;;5021356;28;20459;-82
2021/11/09 15:06:57;;;;;;;7.18;2.30;;;15.10;90.00;;;;;;5021441;28;20433;-81
2021/11/09 15:09:39;;;;;;;9.80;2.13;;;15.30;89.70;;;;;;5021413;28;20454;-82
2021/11/09 15:29:37;;;;;;;5.72;1.98;;;9.80;98.70;;;;;;5035915;28;20393;-80
2021/11/09 15:31:37;;;;;;;7.72;2.40;;;9.60;98.80;;;;;;5031654;28;20486;-81
2021/11/09 15:36:55;;;;;;;8.63;2.22;;;9.20;99.70;;;;;;5036206;28;20022;-80
2021/11/09 15:39:25;;;;;;;9.73;2.55;;;9.00;99.90;;;;;;5035625;28;20068;-80
2021/11/09 15:41:52;;;;;;;10.00;2.90;;;8.90;99.90;;;;;;5017811;28;20026;-80
2021/11/09 15:44:18;;;;;;;9.95;2.30;;;8.80;99.90;;;;;;5017806;28;20029;-80
2021/11/09 15:46:45;;;;;;;8.68;2.53;;;8.70;99.90;;;;;;5017662;28;20025;-80
2021/11/09 15:49:11;;;;;;;6.38;2.65;;;8.60;99.90;;;;;;5017630;28;20504;-80
2021/11/09 15:51:38;;;;;;;9.85;2.50;;;8.50;99.90;;;;;;5035220;28;20022;-80
2021/11/09 15:54:04;;;;;;;8.55;2.88;;;8.50;99.90;;;;;;5017511;28;20022;-80
2021/11/09 15:56:30;;;;;;;8.48;2.58;;;8.40;99.90;;;;;;5035213;28;20026;-80
2021/11/09 15:58:57;;;;;;;7.93;3.72;;;8.30;99.90;;;;;;5017422;28;20120;-80
2021/11/09 16:01:24;;;;;;;13.45;3.92;;;8.20;99.90;;;;;;5017737;28;20116;-80
2021/11/09 16:03:51;;;;;;;9.40;3.30;;;8.10;99.90;;;;;;5017593;28;20091;-80
2021/11/09 16:06:17;;;;;;;11.68;2.83;;;8.10;99.90;;;;;;5018714;28;20045;-80
2021/11/09 16:08:45;;;;;;;10.75;2.88;;;8.00;99.90;;;;;;5017453;28;20025;-80
2021/11/09 16:11:13;;;;;;;9.23;3.22;;;7.90;99.90;;;;;;5018359;28;20464;-80